createdAt,value
2023-06-25T00:02:20.818Z,92.95
2023-06-25T00:05:22.891Z,93.72
2023-06-25T00:08:24.758Z,93.35
2023-06-25T00:11:26.517Z,94.77
2023-06-25T00:14:28.441Z,94.04
2023-06-25T00:17:30.402Z,95.21
2023-06-25T00:20:32.189Z,94.54
2023-06-25T00:23:34.492Z,94.47
2023-06-25T00:26:36.321Z,93.85
2023-06-25T00:29:38.152Z,95.42
2023-06-25T00:32:40.052Z,95.56
2023-06-25T00:35:51.046Z,95.89
2023-06-25T00:38:52.831Z,95.91
2023-06-25T00:41:59.045Z,94.76
2023-06-25T00:45:01.254Z,94.39
2023-06-25T00:48:03.390Z,93.70
2023-06-25T00:51:05.268Z,93.51
2023-06-25T00:54:07.051Z,93.10
2023-06-25T00:57:09.761Z,93.37
2023-06-25T01:00:15.853Z,92.94
2023-06-25T01:03:39.454Z,93.02
2023-06-25T01:06:48.280Z,93.21
2023-06-25T01:09:50.546Z,93.05
2023-06-25T01:12:53.393Z,93.41
2023-06-25T01:15:55.190Z,92.84
2023-06-25T01:19:05.207Z,92.73
2023-06-25T01:22:08.788Z,93.18
2023-06-25T01:25:10.830Z,92.63
2023-06-25T01:28:12.911Z,92.78
2023-06-25T01:31:14.681Z,92.88
2023-06-25T01:34:16.521Z,92.71
2023-06-25T01:37:19.341Z,93.06
2023-06-25T01:40:21.300Z,93.10
2023-06-25T01:43:23.032Z,93.82
2023-06-25T01:46:25.018Z,94.04
2023-06-25T01:49:32.212Z,94.35
2023-06-25T01:52:35.470Z,93.92
2023-06-25T01:55:37.732Z,93.84
2023-06-25T01:58:39.842Z,93.67
2023-06-25T02:01:41.685Z,94.34
2023-06-25T02:04:44.161Z,93.98
2023-06-25T02:07:45.982Z,93.93
2023-06-25T02:10:50.634Z,94.31
2023-06-25T02:13:55.605Z,93.98
2023-06-25T02:17:00.344Z,94.10
2023-06-25T02:20:05.800Z,94.39
2023-06-25T02:23:08.670Z,93.94
2023-06-25T02:26:10.812Z,94.34
2023-06-25T02:29:12.567Z,94.18
2023-06-25T02:32:14.419Z,95.00
2023-06-25T02:35:17.189Z,94.38
2023-06-25T02:38:19.113Z,94.23
2023-06-25T02:41:20.929Z,94.95
2023-06-25T02:44:22.683Z,94.61
2023-06-25T02:47:24.659Z,94.47
2023-06-25T02:50:26.924Z,94.83
2023-06-25T02:53:28.874Z,94.51
2023-06-25T02:56:30.887Z,94.58
2023-06-25T02:59:32.757Z,94.38
2023-06-25T03:02:34.662Z,94.25
2023-06-25T03:05:36.697Z,94.17
2023-06-25T03:08:38.877Z,93.92
2023-06-25T03:11:40.605Z,94.34
2023-06-25T03:14:42.728Z,93.77
2023-06-25T03:17:45.444Z,93.75
2023-06-25T03:20:47.263Z,93.28
2023-06-25T03:23:49.008Z,93.29
2023-06-25T03:26:51.113Z,93.67
2023-06-25T03:29:52.901Z,93.46
2023-06-25T03:32:54.719Z,93.53
2023-06-25T03:35:56.498Z,93.66
2023-06-25T03:38:58.402Z,93.41
2023-06-25T03:42:00.494Z,93.50
2023-06-25T03:45:02.406Z,93.03
2023-06-25T03:48:04.475Z,92.77
2023-06-25T03:51:06.330Z,92.63
2023-06-25T03:54:08.158Z,92.59
2023-06-25T03:57:09.908Z,92.17
2023-06-25T04:00:12.271Z,92.13
2023-06-25T04:03:14.118Z,91.91
2023-06-25T04:06:15.825Z,91.78
2023-06-25T04:09:17.677Z,91.26
2023-06-25T04:12:19.509Z,91.32
2023-06-25T04:15:21.243Z,91.32
2023-06-25T04:18:23.036Z,90.97
2023-06-25T04:21:24.904Z,90.78
2023-06-25T04:24:26.894Z,90.43
2023-06-25T04:27:28.628Z,90.00
2023-06-25T04:30:30.411Z,89.60
2023-06-25T04:33:32.252Z,89.44
2023-06-25T04:36:34.533Z,89.23
2023-06-25T04:39:36.347Z,89.07
2023-06-25T04:42:38.144Z,88.71
2023-06-25T04:45:40.122Z,89.27
2023-06-25T04:48:45.354Z,89.12
2023-06-25T04:51:47.236Z,89.01
2023-06-25T04:54:49.328Z,89.74
2023-06-25T04:57:51.267Z,89.38
2023-06-25T05:00:53.010Z,88.97
2023-06-25T05:03:54.964Z,89.83
2023-06-25T05:06:57.364Z,89.62
2023-06-25T05:09:59.111Z,89.66
2023-06-25T05:13:01.333Z,89.18
2023-06-25T05:16:04.312Z,90.08
2023-06-25T05:19:06.093Z,89.54
2023-06-25T05:22:07.886Z,89.23
2023-06-25T05:25:10.035Z,89.18
2023-06-25T05:28:12.465Z,89.53
2023-06-25T05:31:14.221Z,89.77
2023-06-25T05:34:16.094Z,89.79
2023-06-25T05:37:17.887Z,89.20
2023-06-25T05:40:19.860Z,88.88
2023-06-25T05:43:21.580Z,89.61
2023-06-25T05:46:23.410Z,89.23
2023-06-25T05:49:25.231Z,88.75
2023-06-25T05:52:27.439Z,88.08
2023-06-25T05:55:29.216Z,87.39
2023-06-25T05:58:30.952Z,86.89
2023-06-25T06:01:32.859Z,86.45
2023-06-25T06:04:35.362Z,86.04
2023-06-25T06:07:37.266Z,85.49
2023-06-25T06:10:39.022Z,85.35
2023-06-25T06:13:40.801Z,85.05
2023-06-25T06:16:42.600Z,82.56
2023-06-25T06:19:44.372Z,83.36
2023-06-25T06:22:46.696Z,81.41
2023-06-25T06:25:48.449Z,82.02
2023-06-25T06:28:51.091Z,81.14
2023-06-25T06:31:52.999Z,80.64
2023-06-25T06:34:54.960Z,79.78
2023-06-25T06:37:56.852Z,78.15
2023-06-25T06:40:59.274Z,77.17
2023-06-25T06:44:14.126Z,76.09
2023-06-25T06:47:15.963Z,77.32
2023-06-25T06:50:17.783Z,77.20
2023-06-25T06:53:19.720Z,76.64
2023-06-25T06:56:21.521Z,75.86
2023-06-25T06:59:23.441Z,69.81
2023-06-25T07:02:25.234Z,72.42
2023-06-25T07:05:27.542Z,70.52
2023-06-25T07:08:29.892Z,71.66
2023-06-25T07:11:31.854Z,71.20
2023-06-25T07:14:33.637Z,71.42
2023-06-25T07:17:35.483Z,70.13
2023-06-25T07:20:37.317Z,70.78
2023-06-25T07:23:39.358Z,68.44
2023-06-25T07:26:41.422Z,69.14
2023-06-25T07:29:43.581Z,67.73
2023-06-25T07:32:46.231Z,67.14
2023-06-25T07:35:48.414Z,66.67
2023-06-25T07:38:50.169Z,66.09
2023-06-25T07:41:52.057Z,56.30
2023-06-25T07:44:57.218Z,60.37
2023-06-25T07:47:59.395Z,57.26
2023-06-25T07:51:01.316Z,55.42
2023-06-25T07:54:03.186Z,55.43
2023-06-25T07:57:05.401Z,55.86
2023-06-25T08:00:08.166Z,54.24
2023-06-25T08:03:10.212Z,55.75
2023-06-25T08:06:12.026Z,53.97
2023-06-25T08:09:13.782Z,53.32
2023-06-25T08:12:16.227Z,52.52
2023-06-25T08:15:18.446Z,53.14
2023-06-25T08:18:20.354Z,51.47
2023-06-25T08:21:22.145Z,52.47
2023-06-25T08:24:25.900Z,52.34
2023-06-25T08:27:28.956Z,53.19
2023-06-25T08:30:31.015Z,53.81
2023-06-25T08:33:33.788Z,53.22
2023-06-25T08:36:37.545Z,51.54
2023-06-25T08:39:39.520Z,50.31
2023-06-25T08:42:43.565Z,49.27
2023-06-25T08:45:47.617Z,49.32
2023-06-25T08:48:55.721Z,48.18
2023-06-25T08:51:57.940Z,47.30
2023-06-25T08:54:59.763Z,46.95
2023-06-25T08:58:01.764Z,46.36
2023-06-25T09:01:05.185Z,42.83
2023-06-25T09:04:07.206Z,43.57
2023-06-25T09:07:13.238Z,44.96
2023-06-25T09:10:15.057Z,44.67
2023-06-25T09:13:22.042Z,45.09
2023-06-25T09:16:25.852Z,44.32
2023-06-25T09:19:29.410Z,43.48
2023-06-25T09:22:31.393Z,44.64
2023-06-25T09:25:33.285Z,44.49
2023-06-25T09:28:35.155Z,44.07
2023-06-25T09:31:37.150Z,43.74
2023-06-25T09:34:43.125Z,42.65
2023-06-25T09:37:44.909Z,44.24
2023-06-25T09:40:47.861Z,43.07
2023-06-25T09:43:54.922Z,42.83
2023-06-25T09:47:07.373Z,42.34
2023-06-25T09:50:24.917Z,43.38
2023-06-25T09:53:29.066Z,41.56
2023-06-25T09:56:33.854Z,42.45
2023-06-25T09:59:38.690Z,41.57
2023-06-25T10:02:43.096Z,42.12
2023-06-25T10:05:45.468Z,42.95
2023-06-25T10:08:51.942Z,41.72
2023-06-25T10:11:57.683Z,41.09
2023-06-25T10:15:03.195Z,41.97
2023-06-25T10:18:07.240Z,41.22
2023-06-25T10:21:09.210Z,41.21
2023-06-25T10:24:11.077Z,40.60
2023-06-25T10:27:21.880Z,40.75
2023-06-25T10:30:23.689Z,40.13
2023-06-25T10:33:25.479Z,40.05
2023-06-25T10:36:27.311Z,39.65
2023-06-25T10:39:40.395Z,38.31
2023-06-25T10:42:42.456Z,38.15
2023-06-25T10:45:53.499Z,38.05
2023-06-25T10:48:55.332Z,38.75
2023-06-25T10:52:00.937Z,39.35
2023-06-25T10:55:11.600Z,39.49
2023-06-25T10:58:21.335Z,39.23
2023-06-25T11:01:23.248Z,40.76
2023-06-25T11:04:26.704Z,39.82
2023-06-25T11:07:28.628Z,39.74
2023-06-25T11:10:30.631Z,40.11
2023-06-25T11:13:33.286Z,39.98
2023-06-25T11:16:35.093Z,39.54
2023-06-25T11:19:36.958Z,40.81
2023-06-25T11:22:45.055Z,41.52
2023-06-25T11:25:47.177Z,42.22
2023-06-25T11:28:50.888Z,41.75
2023-06-25T11:31:53.833Z,40.74
2023-06-25T11:34:56.171Z,41.43
2023-06-25T11:37:57.921Z,41.39
2023-06-25T11:40:59.999Z,41.81
2023-06-25T11:44:01.844Z,40.88
2023-06-25T11:47:03.725Z,40.91
2023-06-25T11:50:05.702Z,39.38
2023-06-25T11:53:07.623Z,40.47
2023-06-25T11:56:09.381Z,40.76
2023-06-25T11:59:12.128Z,39.75
2023-06-25T12:02:14.645Z,40.78
2023-06-25T12:05:16.788Z,40.56
2023-06-25T12:08:18.800Z,40.24
2023-06-25T12:11:20.898Z,40.05
2023-06-25T12:14:23.173Z,39.88
2023-06-25T12:17:24.891Z,39.97
2023-06-25T12:20:28.785Z,39.75
2023-06-25T12:23:30.600Z,39.74
2023-06-25T12:26:32.357Z,39.96
2023-06-25T12:29:34.279Z,39.71
2023-06-25T12:32:38.503Z,39.54
2023-06-25T12:35:41.863Z,39.06
2023-06-25T12:38:46.810Z,39.90
2023-06-25T12:41:49.001Z,39.57
2023-06-25T12:44:50.909Z,40.46
2023-06-25T12:47:53.519Z,38.72
2023-06-25T12:50:55.625Z,39.44
2023-06-25T12:53:57.792Z,40.96
2023-06-25T12:56:59.797Z,40.45
2023-06-25T13:00:05.510Z,39.77
2023-06-25T13:03:07.486Z,39.50
2023-06-25T13:06:09.464Z,38.99
2023-06-25T13:09:11.230Z,40.95
2023-06-25T13:12:12.975Z,38.47
2023-06-25T13:15:14.811Z,39.45
2023-06-25T13:18:16.634Z,38.28
2023-06-25T13:21:18.462Z,40.56
2023-06-25T13:24:20.173Z,39.64
2023-06-25T13:27:21.958Z,39.38
2023-06-25T13:30:26.836Z,39.92
2023-06-25T13:33:30.251Z,40.46
2023-06-25T13:36:32.300Z,40.90
2023-06-25T13:39:34.112Z,41.31
2023-06-25T13:42:35.898Z,42.33
2023-06-25T13:45:37.993Z,41.65
2023-06-25T13:48:39.878Z,41.02
2023-06-25T13:51:41.668Z,43.69
2023-06-25T13:54:43.546Z,45.92
2023-06-25T13:57:45.433Z,45.03
2023-06-25T14:00:47.365Z,44.55
2023-06-25T14:03:49.225Z,43.66
2023-06-25T14:06:51.434Z,43.79
2023-06-25T14:09:53.787Z,43.55
2023-06-25T14:12:55.632Z,43.62
2023-06-25T14:16:10.588Z,44.14
2023-06-25T14:19:18.055Z,43.94
2023-06-25T14:22:19.801Z,42.88
2023-06-25T14:25:21.784Z,43.62
2023-06-25T14:28:25.051Z,44.88
2023-06-25T14:31:28.397Z,43.64
2023-06-25T14:34:30.178Z,43.70
2023-06-25T14:37:32.038Z,44.26
2023-06-25T14:40:33.929Z,43.38
2023-06-25T14:43:35.988Z,44.03
2023-06-25T14:46:37.878Z,44.22
2023-06-25T14:49:40.268Z,43.34
2023-06-25T14:52:42.152Z,44.45
2023-06-25T14:55:44.951Z,43.89
2023-06-25T14:58:46.855Z,43.97
2023-06-25T15:01:48.707Z,45.16
2023-06-25T15:04:50.572Z,44.31
2023-06-25T15:07:52.445Z,43.92
2023-06-25T15:10:54.195Z,43.41
2023-06-25T15:13:59.019Z,43.88
2023-06-25T15:17:01.260Z,45.01
2023-06-25T15:20:06.407Z,44.02
2023-06-25T15:23:08.587Z,43.84
2023-06-25T15:26:10.492Z,43.90
2023-06-25T15:29:12.347Z,44.00
2023-06-25T15:32:14.160Z,44.43
2023-06-25T15:35:16.013Z,44.89
2023-06-25T15:38:17.752Z,45.23
2023-06-25T15:41:19.645Z,44.88
2023-06-25T15:44:21.561Z,43.94
2023-06-25T15:47:23.371Z,44.85
2023-06-25T15:50:25.323Z,45.09
2023-06-25T15:53:27.434Z,44.92
2023-06-25T15:56:29.223Z,45.42
2023-06-25T15:59:31.650Z,45.51
2023-06-25T16:02:33.461Z,45.24
2023-06-25T16:05:35.713Z,46.06
2023-06-25T16:08:37.715Z,45.66
2023-06-25T16:11:39.818Z,45.74
2023-06-25T16:14:41.570Z,45.67
2023-06-25T16:17:43.367Z,46.09
2023-06-25T16:20:45.608Z,46.00
2023-06-25T16:23:48.228Z,46.20
2023-06-25T16:26:50.011Z,45.72
2023-06-25T16:29:52.384Z,46.11
2023-06-25T16:32:56.500Z,46.01
2023-06-25T16:35:58.336Z,46.04
2023-06-25T16:39:00.363Z,46.55
2023-06-25T16:42:02.142Z,46.15
2023-06-25T16:45:04.010Z,46.54
2023-06-25T16:48:07.852Z,46.43
2023-06-25T16:51:09.723Z,47.53
2023-06-25T16:54:12.220Z,47.41
2023-06-25T16:57:14.036Z,47.85
2023-06-25T17:00:16.143Z,47.54
2023-06-25T17:03:19.034Z,47.77
2023-06-25T17:06:21.134Z,47.95
2023-06-25T17:09:22.881Z,48.27
2023-06-25T17:12:24.735Z,48.70
2023-06-25T17:15:26.548Z,47.95
2023-06-25T17:18:28.451Z,47.94
2023-06-25T17:21:30.349Z,48.57
2023-06-25T17:24:32.407Z,48.89
2023-06-25T17:27:34.372Z,50.07
2023-06-25T17:30:36.212Z,51.59
2023-06-25T17:33:38.001Z,50.83
2023-06-25T17:36:40.315Z,51.41
2023-06-25T17:39:42.240Z,51.16
2023-06-25T17:42:44.043Z,51.86
2023-06-25T17:45:45.947Z,52.87
2023-06-25T17:48:48.494Z,54.61
2023-06-25T17:51:50.453Z,56.86
2023-06-25T17:54:52.424Z,61.49
2023-06-25T17:57:54.247Z,62.17
2023-06-25T18:00:56.112Z,62.33
2023-06-25T18:03:57.914Z,62.66
2023-06-25T18:06:59.818Z,63.08
2023-06-25T18:10:01.710Z,63.58
2023-06-25T18:13:03.687Z,64.15
2023-06-25T18:16:05.520Z,64.65
2023-06-25T18:19:07.333Z,65.24
2023-06-25T18:22:09.099Z,65.72
2023-06-25T18:25:10.899Z,66.21
2023-06-25T18:28:12.642Z,66.33
2023-06-25T18:31:14.619Z,66.69
2023-06-25T18:34:16.480Z,67.10
2023-06-25T18:37:18.239Z,67.81
2023-06-25T18:40:20.053Z,68.18
2023-06-25T18:43:22.455Z,68.47
2023-06-25T18:46:24.163Z,68.20
2023-06-25T18:49:26.052Z,68.18
2023-06-25T18:52:27.830Z,68.19
2023-06-25T18:55:29.702Z,68.12
2023-06-25T18:58:31.581Z,68.00
2023-06-25T19:01:34.636Z,69.03
2023-06-25T19:04:37.979Z,70.86
2023-06-25T19:07:40.293Z,71.62
2023-06-25T19:10:42.961Z,74.04
2023-06-25T19:13:44.986Z,74.46
2023-06-25T19:16:46.845Z,75.33
2023-06-25T19:19:48.734Z,79.72
2023-06-25T19:23:09.154Z,82.95
2023-06-25T19:26:12.541Z,81.69
2023-06-25T19:29:14.701Z,80.38
2023-06-25T19:32:16.725Z,79.94
2023-06-25T19:35:21.223Z,80.31
2023-06-25T19:38:23.155Z,80.12
2023-06-25T19:41:25.091Z,80.08
2023-06-25T19:44:26.838Z,80.18
2023-06-25T19:47:28.832Z,79.56
2023-06-25T19:50:31.174Z,79.44
2023-06-25T19:53:34.391Z,79.14
2023-06-25T19:56:36.529Z,79.65
2023-06-25T19:59:38.604Z,81.05
2023-06-25T20:02:40.400Z,81.03
2023-06-25T20:05:42.383Z,80.64
2023-06-25T20:08:44.274Z,80.70
2023-06-25T20:11:46.255Z,80.64
2023-06-25T20:14:48.326Z,81.01
2023-06-25T20:17:53.682Z,81.41
2023-06-25T20:20:55.568Z,83.42
2023-06-25T20:23:57.436Z,81.93
2023-06-25T20:27:00.127Z,81.92
2023-06-25T20:30:02.197Z,82.06
2023-06-25T20:33:06.353Z,82.31
2023-06-25T20:36:08.321Z,82.06
2023-06-25T20:39:10.035Z,82.19
2023-06-25T20:42:11.779Z,82.56
2023-06-25T20:45:13.592Z,82.41
2023-06-25T20:48:15.447Z,82.59
2023-06-25T20:51:17.818Z,82.66
2023-06-25T20:54:19.629Z,83.36
2023-06-25T20:57:21.503Z,83.53
2023-06-25T21:00:24.053Z,83.92
2023-06-25T21:03:25.999Z,84.13
2023-06-25T21:06:27.989Z,84.46
2023-06-25T21:09:29.810Z,84.97
2023-06-25T21:12:32.462Z,84.96
2023-06-25T21:15:34.300Z,85.60
2023-06-25T21:18:36.068Z,86.08
2023-06-25T21:21:37.907Z,86.25
2023-06-25T21:24:39.751Z,86.42
2023-06-25T21:27:41.549Z,86.89
2023-06-25T21:30:43.433Z,86.91
2023-06-25T21:33:45.230Z,87.28
2023-06-25T21:36:46.992Z,87.96
2023-06-25T21:39:48.842Z,88.17
2023-06-25T21:42:50.664Z,88.27
2023-06-25T21:45:52.565Z,88.77
2023-06-25T21:48:54.324Z,89.00
2023-06-25T21:51:56.106Z,89.04
2023-06-25T21:54:57.864Z,89.19
2023-06-25T21:57:59.680Z,89.42
2023-06-25T22:01:01.571Z,89.59
2023-06-25T22:04:03.369Z,90.34
2023-06-25T22:07:05.297Z,90.96
2023-06-25T22:10:07.228Z,91.24
2023-06-25T22:13:09.171Z,90.98
2023-06-25T22:16:10.968Z,91.33
2023-06-25T22:19:13.256Z,91.44
2023-06-25T22:22:15.087Z,91.52
2023-06-25T22:25:16.877Z,91.32
2023-06-25T22:28:18.623Z,92.19
2023-06-25T22:31:20.427Z,93.24
2023-06-25T22:34:22.717Z,93.25
2023-06-25T22:37:24.490Z,92.83
2023-06-25T22:40:26.238Z,93.44
2023-06-25T22:43:27.958Z,93.28
2023-06-25T22:46:30.070Z,92.87
2023-06-25T22:49:34.699Z,92.46
2023-06-25T22:52:36.510Z,92.48
2023-06-25T22:55:38.425Z,92.16
2023-06-25T22:58:40.167Z,92.33
2023-06-25T23:01:41.986Z,92.15
2023-06-25T23:04:44.077Z,92.29
2023-06-25T23:07:45.926Z,92.82
2023-06-25T23:10:47.719Z,95.26
2023-06-25T23:13:49.790Z,95.26
2023-06-25T23:16:51.625Z,95.53
2023-06-25T23:19:54.077Z,95.78
2023-06-25T23:22:56.091Z,95.21
2023-06-25T23:26:00.493Z,94.71
2023-06-25T23:29:02.236Z,94.32
2023-06-25T23:32:05.661Z,94.09
2023-06-25T23:35:10.594Z,93.93
2023-06-25T23:38:12.585Z,93.81
2023-06-25T23:41:14.367Z,93.92
2023-06-25T23:44:16.259Z,93.96
2023-06-25T23:47:18.123Z,94.10
2023-06-25T23:50:19.964Z,95.05
2023-06-25T23:53:21.729Z,95.81
2023-06-25T23:56:24.898Z,97.92
2023-06-25T23:59:26.656Z,99.57
